sensor_id;sensor_type;location;lat;lon;timestamp;P1;durP1;ratioP1;P2;durP2;ratioP2
84444;SDS011;74683;48.402;10.596;2024-01-30T00:01:55;13.60;;;6.00;;
84444;SDS011;74683;48.402;10.596;2024-01-30T00:04:22;10.95;;;5.13;;
84444;SDS011;74683;48.402;10.596;2024-01-30T00:06:50;13.10;;;5.72;;
84444;SDS011;74683;48.402;10.596;2024-01-30T00:09:17;11.68;;;5.70;;
84444;SDS011;74683;48.402;10.596;2024-01-30T00:11:44;11.10;;;5.88;;
84444;SDS011;74683;48.402;10.596;2024-01-30T00:14:11;13.30;;;6.35;;
84444;SDS011;74683;48.402;10.596;2024-01-30T00:16:37;13.18;;;6.53;;
84444;SDS011;74683;48.402;10.596;2024-01-30T00:19:04;10.40;;;5.38;;
84444;SDS011;74683;48.402;10.596;2024-01-30T00:21:30;11.15;;;6.32;;
84444;SDS011;74683;48.402;10.596;2024-01-30T00:23:57;13.15;;;6.70;;
84444;SDS011;74683;48.402;10.596;2024-01-30T00:26:24;10.88;;;6.18;;
84444;SDS011;74683;48.402;10.596;2024-01-30T00:28:50;20.02;;;6.72;;
84444;SDS011;74683;48.402;10.596;2024-01-30T00:31:17;14.82;;;6.50;;
84444;SDS011;74683;48.402;10.596;2024-01-30T00:33:44;16.02;;;7.30;;
84444;SDS011;74683;48.402;10.596;2024-01-30T00:36:11;16.27;;;6.53;;
84444;SDS011;74683;48.402;10.596;2024-01-30T00:38:37;12.80;;;7.15;;
84444;SDS011;74683;48.402;10.596;2024-01-30T00:41:04;14.00;;;6.05;;
84444;SDS011;74683;48.402;10.596;2024-01-30T00:43:31;16.70;;;7.00;;
84444;SDS011;74683;48.402;10.596;2024-01-30T00:45:58;16.73;;;7.70;;
84444;SDS011;74683;48.402;10.596;2024-01-30T00:48:25;12.38;;;6.53;;
84444;SDS011;74683;48.402;10.596;2024-01-30T00:50:52;17.58;;;7.18;;
84444;SDS011;74683;48.402;10.596;2024-01-30T00:53:18;13.90;;;7.10;;
84444;SDS011;74683;48.402;10.596;2024-01-30T00:55:45;20.77;;;8.05;;
84444;SDS011;74683;48.402;10.596;2024-01-30T00:58:12;17.90;;;8.60;;
84444;SDS011;74683;48.402;10.596;2024-01-30T01:00:39;19.08;;;6.68;;
84444;SDS011;74683;48.402;10.596;2024-01-30T01:03:05;13.35;;;5.75;;
84444;SDS011;74683;48.402;10.596;2024-01-30T01:05:32;17.23;;;6.53;;
84444;SDS011;74683;48.402;10.596;2024-01-30T01:07:59;16.83;;;7.05;;
84444;SDS011;74683;48.402;10.596;2024-01-30T01:10:25;17.88;;;6.93;;
84444;SDS011;74683;48.402;10.596;2024-01-30T01:12:53;18.45;;;7.57;;
84444;SDS011;74683;48.402;10.596;2024-01-30T01:15:21;18.70;;;8.10;;
84444;SDS011;74683;48.402;10.596;2024-01-30T01:17:48;18.92;;;6.88;;
84444;SDS011;74683;48.402;10.596;2024-01-30T01:20:15;15.40;;;6.57;;
84444;SDS011;74683;48.402;10.596;2024-01-30T01:22:42;13.07;;;6.63;;
84444;SDS011;74683;48.402;10.596;2024-01-30T01:25:08;13.40;;;7.47;;
84444;SDS011;74683;48.402;10.596;2024-01-30T01:27:36;16.75;;;7.20;;
84444;SDS011;74683;48.402;10.596;2024-01-30T01:30:10;17.38;;;6.47;;
84444;SDS011;74683;48.402;10.596;2024-01-30T01:32:38;21.85;;;6.75;;
84444;SDS011;74683;48.402;10.596;2024-01-30T01:35:05;13.93;;;6.50;;
84444;SDS011;74683;48.402;10.596;2024-01-30T01:37:32;16.88;;;6.90;;
84444;SDS011;74683;48.402;10.596;2024-01-30T01:39:59;12.80;;;5.30;;
84444;SDS011;74683;48.402;10.596;2024-01-30T01:42:26;12.93;;;5.82;;
84444;SDS011;74683;48.402;10.596;2024-01-30T01:44:53;14.95;;;7.15;;
84444;SDS011;74683;48.402;10.596;2024-01-30T01:47:19;14.52;;;7.25;;
84444;SDS011;74683;48.402;10.596;2024-01-30T01:49:47;16.17;;;7.28;;
84444;SDS011;74683;48.402;10.596;2024-01-30T01:52:14;14.55;;;6.57;;
84444;SDS011;74683;48.402;10.596;2024-01-30T01:54:41;11.02;;;5.68;;
84444;SDS011;74683;48.402;10.596;2024-01-30T01:57:08;14.63;;;5.80;;
84444;SDS011;74683;48.402;10.596;2024-01-30T01:59:36;14.50;;;6.07;;
84444;SDS011;74683;48.402;10.596;2024-01-30T02:02:02;15.95;;;6.25;;
84444;SDS011;74683;48.402;10.596;2024-01-30T02:04:30;15.02;;;6.47;;
84444;SDS011;74683;48.402;10.596;2024-01-30T02:06:57;19.00;;;7.30;;
84444;SDS011;74683;48.402;10.596;2024-01-30T02:09:25;13.30;;;7.55;;
84444;SDS011;74683;48.402;10.596;2024-01-30T02:11:51;13.20;;;6.53;;
84444;SDS011;74683;48.402;10.596;2024-01-30T02:14:18;18.05;;;8.38;;
84444;SDS011;74683;48.402;10.596;2024-01-30T02:16:44;16.65;;;7.32;;
84444;SDS011;74683;48.402;10.596;2024-01-30T02:19:11;12.90;;;6.53;;
84444;SDS011;74683;48.402;10.596;2024-01-30T02:21:38;14.73;;;6.93;;
84444;SDS011;74683;48.402;10.596;2024-01-30T02:24:05;17.58;;;7.57;;
84444;SDS011;74683;48.402;10.596;2024-01-30T02:26:32;17.33;;;6.78;;
84444;SDS011;74683;48.402;10.596;2024-01-30T02:28:58;13.75;;;7.32;;
84444;SDS011;74683;48.402;10.596;2024-01-30T02:31:25;13.93;;;6.97;;
84444;SDS011;74683;48.402;10.596;2024-01-30T02:33:52;13.98;;;6.55;;
84444;SDS011;74683;48.402;10.596;2024-01-30T02:36:19;16.88;;;7.45;;
84444;SDS011;74683;48.402;10.596;2024-01-30T02:38:46;13.38;;;6.30;;
84444;SDS011;74683;48.402;10.596;2024-01-30T02:41:13;13.63;;;6.78;;
84444;SDS011;74683;48.402;10.596;2024-01-30T02:43:40;11.27;;;6.28;;
84444;SDS011;74683;48.402;10.596;2024-01-30T02:46:07;17.55;;;7.68;;
84444;SDS011;74683;48.402;10.596;2024-01-30T02:48:33;14.93;;;6.93;;
84444;SDS011;74683;48.402;10.596;2024-01-30T02:51:00;14.00;;;6.25;;
84444;SDS011;74683;48.402;10.596;2024-01-30T02:53:26;15.15;;;7.22;;
84444;SDS011;74683;48.402;10.596;2024-01-30T02:55:53;11.23;;;5.85;;
84444;SDS011;74683;48.402;10.596;2024-01-30T02:58:20;12.23;;;5.78;;
84444;SDS011;74683;48.402;10.596;2024-01-30T03:00:46;14.95;;;6.97;;
84444;SDS011;74683;48.402;10.596;2024-01-30T03:03:13;16.73;;;7.25;;
84444;SDS011;74683;48.402;10.596;2024-01-30T03:05:40;14.50;;;6.93;;
84444;SDS011;74683;48.402;10.596;2024-01-30T03:08:06;19.33;;;8.20;;
84444;SDS011;74683;48.402;10.596;2024-01-30T03:10:33;19.63;;;7.63;;
84444;SDS011;74683;48.402;10.596;2024-01-30T03:13:00;15.27;;;7.75;;
84444;SDS011;74683;48.402;10.596;2024-01-30T03:15:27;13.90;;;6.40;;
84444;SDS011;74683;48.402;10.596;2024-01-30T03:17:53;17.77;;;7.18;;
84444;SDS011;74683;48.402;10.596;2024-01-30T03:20:20;14.52;;;6.97;;
84444;SDS011;74683;48.402;10.596;2024-01-30T03:22:47;14.43;;;6.90;;
84444;SDS011;74683;48.402;10.596;2024-01-30T03:25:13;25.77;;;7.32;;
84444;SDS011;74683;48.402;10.596;2024-01-30T03:27:40;14.55;;;7.38;;
84444;SDS011;74683;48.402;10.596;2024-01-30T03:30:07;12.23;;;6.32;;
84444;SDS011;74683;48.402;10.596;2024-01-30T03:32:34;14.85;;;7.53;;
84444;SDS011;74683;48.402;10.596;2024-01-30T03:35:01;11.80;;;6.15;;
84444;SDS011;74683;48.402;10.596;2024-01-30T03:37:28;11.23;;;5.93;;
84444;SDS011;74683;48.402;10.596;2024-01-30T03:39:54;10.57;;;5.85;;
84444;SDS011;74683;48.402;10.596;2024-01-30T03:42:21;10.98;;;5.88;;
84444;SDS011;74683;48.402;10.596;2024-01-30T03:44:48;13.45;;;6.82;;
84444;SDS011;74683;48.402;10.596;2024-01-30T03:47:18;10.63;;;6.32;;
84444;SDS011;74683;48.402;10.596;2024-01-30T03:49:44;11.27;;;5.78;;
84444;SDS011;74683;48.402;10.596;2024-01-30T03:52:11;14.30;;;6.10;;
84444;SDS011;74683;48.402;10.596;2024-01-30T03:54:38;16.17;;;6.85;;
84444;SDS011;74683;48.402;10.596;2024-01-30T03:57:05;14.63;;;7.05;;
84444;SDS011;74683;48.402;10.596;2024-01-30T03:59:32;9.68;;;6.00;;
84444;SDS011;74683;48.402;10.596;2024-01-30T04:01:59;13.88;;;6.13;;
84444;SDS011;74683;48.402;10.596;2024-01-30T04:04:26;11.95;;;6.40;;
84444;SDS011;74683;48.402;10.596;2024-01-30T04:06:53;18.45;;;7.03;;
84444;SDS011;74683;48.402;10.596;2024-01-30T04:09:20;17.52;;;7.65;;
84444;SDS011;74683;48.402;10.596;2024-01-30T04:11:46;31.67;;;10.18;;
84444;SDS011;74683;48.402;10.596;2024-01-30T04:14:13;154.65;;;35.08;;
84444;SDS011;74683;48.402;10.596;2024-01-30T04:16:40;83.85;;;23.23;;
84444;SDS011;74683;48.402;10.596;2024-01-30T04:19:06;73.68;;;22.90;;
84444;SDS011;74683;48.402;10.596;2024-01-30T04:21:33;53.78;;;17.88;;
84444;SDS011;74683;48.402;10.596;2024-01-30T04:23:59;75.53;;;20.40;;
84444;SDS011;74683;48.402;10.596;2024-01-30T04:26:26;61.90;;;18.23;;
84444;SDS011;74683;48.402;10.596;2024-01-30T04:28:53;61.55;;;18.67;;
84444;SDS011;74683;48.402;10.596;2024-01-30T04:31:19;62.80;;;18.80;;
84444;SDS011;74683;48.402;10.596;2024-01-30T04:33:46;51.17;;;15.30;;
84444;SDS011;74683;48.402;10.596;2024-01-30T04:36:13;39.63;;;10.70;;
84444;SDS011;74683;48.402;10.596;2024-01-30T04:38:39;36.47;;;12.57;;
84444;SDS011;74683;48.402;10.596;2024-01-30T04:41:06;25.60;;;9.30;;
84444;SDS011;74683;48.402;10.596;2024-01-30T04:43:33;24.73;;;9.95;;
84444;SDS011;74683;48.402;10.596;2024-01-30T04:46:00;23.30;;;8.50;;
84444;SDS011;74683;48.402;10.596;2024-01-30T04:48:26;23.77;;;8.90;;
84444;SDS011;74683;48.402;10.596;2024-01-30T04:50:53;16.98;;;8.38;;
84444;SDS011;74683;48.402;10.596;2024-01-30T04:53:20;21.65;;;8.15;;
84444;SDS011;74683;48.402;10.596;2024-01-30T04:55:47;14.25;;;6.22;;
84444;SDS011;74683;48.402;10.596;2024-01-30T04:58:13;18.02;;;6.32;;
84444;SDS011;74683;48.402;10.596;2024-01-30T05:00:40;18.10;;;6.40;;
84444;SDS011;74683;48.402;10.596;2024-01-30T05:03:06;14.48;;;6.63;;
84444;SDS011;74683;48.402;10.596;2024-01-30T05:05:33;14.90;;;6.07;;
84444;SDS011;74683;48.402;10.596;2024-01-30T05:08:00;12.23;;;5.88;;
84444;SDS011;74683;48.402;10.596;2024-01-30T05:10:28;13.52;;;5.85;;
84444;SDS011;74683;48.402;10.596;2024-01-30T05:12:55;14.32;;;5.80;;
84444;SDS011;74683;48.402;10.596;2024-01-30T05:15:21;13.10;;;6.78;;
84444;SDS011;74683;48.402;10.596;2024-01-30T05:17:48;15.68;;;7.32;;
84444;SDS011;74683;48.402;10.596;2024-01-30T05:20:15;13.45;;;6.38;;
84444;SDS011;74683;48.402;10.596;2024-01-30T05:22:43;12.45;;;6.82;;
84444;SDS011;74683;48.402;10.596;2024-01-30T05:25:12;15.95;;;6.68;;
84444;SDS011;74683;48.402;10.596;2024-01-30T05:27:39;17.20;;;7.63;;
84444;SDS011;74683;48.402;10.596;2024-01-30T05:30:06;17.67;;;8.00;;
84444;SDS011;74683;48.402;10.596;2024-01-30T05:32:34;12.90;;;6.40;;
84444;SDS011;74683;48.402;10.596;2024-01-30T05:35:01;15.00;;;6.13;;
84444;SDS011;74683;48.402;10.596;2024-01-30T05:37:27;11.43;;;6.55;;
84444;SDS011;74683;48.402;10.596;2024-01-30T05:39:54;12.27;;;5.97;;
84444;SDS011;74683;48.402;10.596;2024-01-30T05:42:21;10.98;;;5.68;;
84444;SDS011;74683;48.402;10.596;2024-01-30T05:44:47;13.18;;;7.13;;
84444;SDS011;74683;48.402;10.596;2024-01-30T05:47:14;15.00;;;6.85;;
84444;SDS011;74683;48.402;10.596;2024-01-30T05:49:41;14.02;;;7.13;;
84444;SDS011;74683;48.402;10.596;2024-01-30T05:52:08;12.52;;;6.78;;
84444;SDS011;74683;48.402;10.596;2024-01-30T05:54:36;19.13;;;6.75;;
84444;SDS011;74683;48.402;10.596;2024-01-30T05:57:02;20.00;;;7.32;;
84444;SDS011;74683;48.402;10.596;2024-01-30T05:59:29;15.77;;;7.55;;
84444;SDS011;74683;48.402;10.596;2024-01-30T06:01:56;12.65;;;6.18;;
84444;SDS011;74683;48.402;10.596;2024-01-30T06:04:23;17.13;;;7.68;;
84444;SDS011;74683;48.402;10.596;2024-01-30T06:06:49;18.77;;;8.05;;
84444;SDS011;74683;48.402;10.596;2024-01-30T06:09:16;28.42;;;11.43;;
84444;SDS011;74683;48.402;10.596;2024-01-30T06:11:43;41.58;;;13.55;;
84444;SDS011;74683;48.402;10.596;2024-01-30T06:14:09;34.53;;;11.63;;
84444;SDS011;74683;48.402;10.596;2024-01-30T06:16:36;30.33;;;11.73;;
84444;SDS011;74683;48.402;10.596;2024-01-30T06:19:03;24.05;;;9.60;;
84444;SDS011;74683;48.402;10.596;2024-01-30T06:21:29;15.93;;;8.70;;
84444;SDS011;74683;48.402;10.596;2024-01-30T06:23:56;21.70;;;10.25;;
84444;SDS011;74683;48.402;10.596;2024-01-30T06:26:23;18.77;;;7.63;;
84444;SDS011;74683;48.402;10.596;2024-01-30T06:28:49;12.23;;;7.28;;
84444;SDS011;74683;48.402;10.596;2024-01-30T06:31:16;19.08;;;7.28;;
84444;SDS011;74683;48.402;10.596;2024-01-30T06:33:43;14.80;;;6.18;;
84444;SDS011;74683;48.402;10.596;2024-01-30T06:36:09;24.58;;;11.30;;
84444;SDS011;74683;48.402;10.596;2024-01-30T06:38:36;20.20;;;9.80;;
84444;SDS011;74683;48.402;10.596;2024-01-30T06:41:02;21.20;;;9.90;;
84444;SDS011;74683;48.402;10.596;2024-01-30T06:43:29;18.52;;;8.40;;
84444;SDS011;74683;48.402;10.596;2024-01-30T06:45:56;15.57;;;8.20;;
84444;SDS011;74683;48.402;10.596;2024-01-30T06:48:23;14.35;;;8.00;;
84444;SDS011;74683;48.402;10.596;2024-01-30T06:50:49;17.08;;;7.88;;
84444;SDS011;74683;48.402;10.596;2024-01-30T06:53:17;20.40;;;9.30;;
84444;SDS011;74683;48.402;10.596;2024-01-30T06:55:43;23.80;;;9.45;;
84444;SDS011;74683;48.402;10.596;2024-01-30T06:58:10;18.60;;;8.90;;
84444;SDS011;74683;48.402;10.596;2024-01-30T07:00:37;15.65;;;7.35;;
84444;SDS011;74683;48.402;10.596;2024-01-30T07:03:04;15.10;;;7.22;;
84444;SDS011;74683;48.402;10.596;2024-01-30T07:05:31;27.63;;;9.95;;
84444;SDS011;74683;48.402;10.596;2024-01-30T07:07:58;25.23;;;9.07;;
84444;SDS011;74683;48.402;10.596;2024-01-30T07:10:24;26.70;;;11.38;;
84444;SDS011;74683;48.402;10.596;2024-01-30T07:12:51;24.52;;;10.93;;
84444;SDS011;74683;48.402;10.596;2024-01-30T07:15:18;24.52;;;9.93;;
84444;SDS011;74683;48.402;10.596;2024-01-30T07:17:46;18.73;;;8.13;;
84444;SDS011;74683;48.402;10.596;2024-01-30T07:20:13;17.58;;;8.70;;
84444;SDS011;74683;48.402;10.596;2024-01-30T07:22:43;22.13;;;9.20;;
84444;SDS011;74683;48.402;10.596;2024-01-30T07:25:10;18.63;;;8.20;;
84444;SDS011;74683;48.402;10.596;2024-01-30T07:27:37;17.00;;;8.15;;
84444;SDS011;74683;48.402;10.596;2024-01-30T07:30:04;17.55;;;7.15;;
84444;SDS011;74683;48.402;10.596;2024-01-30T07:32:31;21.00;;;9.13;;
84444;SDS011;74683;48.402;10.596;2024-01-30T07:34:58;20.80;;;7.78;;
84444;SDS011;74683;48.402;10.596;2024-01-30T07:37:34;16.30;;;7.32;;
84444;SDS011;74683;48.402;10.596;2024-01-30T07:40:01;17.27;;;8.75;;
84444;SDS011;74683;48.402;10.596;2024-01-30T07:42:29;19.08;;;8.82;;
84444;SDS011;74683;48.402;10.596;2024-01-30T07:44:56;16.63;;;8.80;;
84444;SDS011;74683;48.402;10.596;2024-01-30T07:47:22;18.13;;;8.90;;
84444;SDS011;74683;48.402;10.596;2024-01-30T07:49:49;22.63;;;9.00;;
84444;SDS011;74683;48.402;10.596;2024-01-30T07:52:16;15.98;;;8.80;;
84444;SDS011;74683;48.402;10.596;2024-01-30T07:54:43;15.23;;;7.32;;
84444;SDS011;74683;48.402;10.596;2024-01-30T07:57:09;16.88;;;7.43;;
84444;SDS011;74683;48.402;10.596;2024-01-30T07:59:36;14.68;;;7.25;;
84444;SDS011;74683;48.402;10.596;2024-01-30T08:02:03;19.65;;;8.57;;
84444;SDS011;74683;48.402;10.596;2024-01-30T08:04:30;18.13;;;7.63;;
84444;SDS011;74683;48.402;10.596;2024-01-30T08:06:56;11.73;;;7.22;;
84444;SDS011;74683;48.402;10.596;2024-01-30T08:09:23;18.20;;;8.52;;
84444;SDS011;74683;48.402;10.596;2024-01-30T08:11:50;20.42;;;9.40;;
84444;SDS011;74683;48.402;10.596;2024-01-30T08:14:16;22.67;;;9.10;;
84444;SDS011;74683;48.402;10.596;2024-01-30T08:16:43;21.13;;;8.73;;
84444;SDS011;74683;48.402;10.596;2024-01-30T08:19:09;18.73;;;8.63;;
84444;SDS011;74683;48.402;10.596;2024-01-30T08:21:36;15.93;;;7.93;;
84444;SDS011;74683;48.402;10.596;2024-01-30T08:24:05;16.80;;;7.35;;
84444;SDS011;74683;48.402;10.596;2024-01-30T08:26:32;16.98;;;7.70;;
84444;SDS011;74683;48.402;10.596;2024-01-30T08:29:00;20.42;;;8.27;;
84444;SDS011;74683;48.402;10.596;2024-01-30T08:31:27;21.52;;;9.00;;
84444;SDS011;74683;48.402;10.596;2024-01-30T08:33:54;26.20;;;9.48;;
84444;SDS011;74683;48.402;10.596;2024-01-30T08:36:21;22.20;;;9.85;;
84444;SDS011;74683;48.402;10.596;2024-01-30T08:38:47;23.08;;;10.73;;
84444;SDS011;74683;48.402;10.596;2024-01-30T08:41:14;19.48;;;10.68;;
84444;SDS011;74683;48.402;10.596;2024-01-30T08:43:41;21.13;;;9.73;;
84444;SDS011;74683;48.402;10.596;2024-01-30T08:46:07;19.33;;;9.57;;
84444;SDS011;74683;48.402;10.596;2024-01-30T08:48:35;22.70;;;9.93;;
84444;SDS011;74683;48.402;10.596;2024-01-30T08:51:02;15.73;;;8.18;;
84444;SDS011;74683;48.402;10.596;2024-01-30T08:53:29;17.75;;;8.40;;
84444;SDS011;74683;48.402;10.596;2024-01-30T08:55:56;17.52;;;8.15;;
84444;SDS011;74683;48.402;10.596;2024-01-30T08:58:25;15.38;;;7.47;;
84444;SDS011;74683;48.402;10.596;2024-01-30T09:00:52;15.85;;;7.40;;
84444;SDS011;74683;48.402;10.596;2024-01-30T09:03:19;13.98;;;6.90;;
84444;SDS011;74683;48.402;10.596;2024-01-30T09:05:46;14.10;;;7.90;;
84444;SDS011;74683;48.402;10.596;2024-01-30T09:08:12;16.40;;;8.00;;
84444;SDS011;74683;48.402;10.596;2024-01-30T09:10:39;13.32;;;7.18;;
84444;SDS011;74683;48.402;10.596;2024-01-30T09:13:07;14.70;;;6.78;;
84444;SDS011;74683;48.402;10.596;2024-01-30T09:15:34;13.05;;;7.93;;
84444;SDS011;74683;48.402;10.596;2024-01-30T09:18:01;13.50;;;7.00;;
84444;SDS011;74683;48.402;10.596;2024-01-30T09:20:28;11.90;;;6.82;;
84444;SDS011;74683;48.402;10.596;2024-01-30T09:22:59;9.95;;;6.45;;
84444;SDS011;74683;48.402;10.596;2024-01-30T09:25:26;10.18;;;6.55;;
84444;SDS011;74683;48.402;10.596;2024-01-30T09:27:52;9.55;;;6.05;;
84444;SDS011;74683;48.402;10.596;2024-01-30T09:30:19;10.57;;;6.47;;
84444;SDS011;74683;48.402;10.596;2024-01-30T09:32:46;11.45;;;6.07;;
84444;SDS011;74683;48.402;10.596;2024-01-30T09:35:18;11.57;;;6.22;;
84444;SDS011;74683;48.402;10.596;2024-01-30T09:37:45;10.05;;;5.72;;
84444;SDS011;74683;48.402;10.596;2024-01-30T09:40:11;11.55;;;6.03;;
84444;SDS011;74683;48.402;10.596;2024-01-30T09:42:38;8.77;;;5.78;;
84444;SDS011;74683;48.402;10.596;2024-01-30T09:45:06;10.98;;;5.90;;
84444;SDS011;74683;48.402;10.596;2024-01-30T09:47:42;9.52;;;5.57;;
84444;SDS011;74683;48.402;10.596;2024-01-30T09:50:11;12.85;;;6.00;;
84444;SDS011;74683;48.402;10.596;2024-01-30T09:52:40;10.52;;;6.50;;
84444;SDS011;74683;48.402;10.596;2024-01-30T09:55:09;14.02;;;6.00;;
84444;SDS011;74683;48.402;10.596;2024-01-30T09:57:35;12.38;;;6.68;;
84444;SDS011;74683;48.402;10.596;2024-01-30T10:00:02;9.27;;;5.95;;
84444;SDS011;74683;48.402;10.596;2024-01-30T10:02:33;12.27;;;6.78;;
84444;SDS011;74683;48.402;10.596;2024-01-30T10:05:00;11.73;;;6.70;;
84444;SDS011;74683;48.402;10.596;2024-01-30T10:07:27;11.27;;;6.63;;
84444;SDS011;74683;48.402;10.596;2024-01-30T10:09:54;10.65;;;6.80;;
84444;SDS011;74683;48.402;10.596;2024-01-30T10:12:25;12.35;;;6.93;;
84444;SDS011;74683;48.402;10.596;2024-01-30T10:14:52;14.07;;;7.35;;
84444;SDS011;74683;48.402;10.596;2024-01-30T10:17:20;12.18;;;7.43;;
84444;SDS011;74683;48.402;10.596;2024-01-30T10:19:58;12.73;;;8.38;;
84444;SDS011;74683;48.402;10.596;2024-01-30T10:22:26;12.27;;;8.10;;
84444;SDS011;74683;48.402;10.596;2024-01-30T10:24:53;16.15;;;8.98;;
84444;SDS011;74683;48.402;10.596;2024-01-30T10:27:26;14.27;;;7.30;;
84444;SDS011;74683;48.402;10.596;2024-01-30T10:29:53;15.10;;;7.78;;
84444;SDS011;74683;48.402;10.596;2024-01-30T10:32:20;17.02;;;7.68;;
84444;SDS011;74683;48.402;10.596;2024-01-30T10:34:47;17.15;;;9.15;;
84444;SDS011;74683;48.402;10.596;2024-01-30T10:37:15;15.73;;;7.38;;
84444;SDS011;74683;48.402;10.596;2024-01-30T10:39:43;12.75;;;7.38;;
84444;SDS011;74683;48.402;10.596;2024-01-30T10:42:15;10.82;;;7.65;;
84444;SDS011;74683;48.402;10.596;2024-01-30T10:47:25;14.18;;;7.50;;
84444;SDS011;74683;48.402;10.596;2024-01-30T10:49:54;17.40;;;7.80;;
84444;SDS011;74683;48.402;10.596;2024-01-30T10:57:16;11.18;;;6.50;;
84444;SDS011;74683;48.402;10.596;2024-01-30T10:59:43;15.35;;;7.18;;
84444;SDS011;74683;48.402;10.596;2024-01-30T11:02:12;12.35;;;7.03;;
84444;SDS011;74683;48.402;10.596;2024-01-30T11:04:42;11.10;;;6.65;;
84444;SDS011;74683;48.402;10.596;2024-01-30T11:07:16;13.30;;;6.75;;
84444;SDS011;74683;48.402;10.596;2024-01-30T11:12:25;14.82;;;6.75;;
84444;SDS011;74683;48.402;10.596;2024-01-30T11:17:51;12.45;;;6.68;;
84444;SDS011;74683;48.402;10.596;2024-01-30T11:20:22;13.18;;;7.03;;
84444;SDS011;74683;48.402;10.596;2024-01-30T11:22:52;14.57;;;8.07;;
84444;SDS011;74683;48.402;10.596;2024-01-30T11:25:22;12.23;;;6.13;;
84444;SDS011;74683;48.402;10.596;2024-01-30T11:27:53;9.85;;;6.05;;
84444;SDS011;74683;48.402;10.596;2024-01-30T11:33:04;12.50;;;6.43;;
84444;SDS011;74683;48.402;10.596;2024-01-30T11:35:39;19.40;;;6.25;;
84444;SDS011;74683;48.402;10.596;2024-01-30T11:38:08;11.32;;;6.22;;
84444;SDS011;74683;48.402;10.596;2024-01-30T11:40:39;19.42;;;6.13;;
84444;SDS011;74683;48.402;10.596;2024-01-30T11:43:07;12.38;;;6.43;;
84444;SDS011;74683;48.402;10.596;2024-01-30T11:45:35;9.32;;;5.72;;
84444;SDS011;74683;48.402;10.596;2024-01-30T11:48:03;13.90;;;6.13;;
84444;SDS011;74683;48.402;10.596;2024-01-30T11:50:32;15.60;;;6.85;;
84444;SDS011;74683;48.402;10.596;2024-01-30T11:52:59;10.45;;;6.75;;
84444;SDS011;74683;48.402;10.596;2024-01-30T11:55:26;9.07;;;6.18;;
84444;SDS011;74683;48.402;10.596;2024-01-30T11:58:00;13.80;;;5.97;;
84444;SDS011;74683;48.402;10.596;2024-01-30T12:00:26;13.32;;;5.88;;
84444;SDS011;74683;48.402;10.596;2024-01-30T12:02:53;12.90;;;6.50;;
84444;SDS011;74683;48.402;10.596;2024-01-30T12:05:25;11.32;;;6.50;;
84444;SDS011;74683;48.402;10.596;2024-01-30T12:07:52;11.93;;;6.18;;
84444;SDS011;74683;48.402;10.596;2024-01-30T12:10:19;12.90;;;6.45;;
84444;SDS011;74683;48.402;10.596;2024-01-30T12:12:46;12.82;;;7.35;;
84444;SDS011;74683;48.402;10.596;2024-01-30T12:15:15;11.10;;;6.35;;
84444;SDS011;74683;48.402;10.596;2024-01-30T12:17:42;10.23;;;6.30;;
84444;SDS011;74683;48.402;10.596;2024-01-30T12:20:13;11.52;;;6.50;;
84444;SDS011;74683;48.402;10.596;2024-01-30T12:22:42;12.82;;;6.55;;
84444;SDS011;74683;48.402;10.596;2024-01-30T12:25:13;13.13;;;6.82;;
84444;SDS011;74683;48.402;10.596;2024-01-30T12:27:44;12.85;;;7.57;;
84444;SDS011;74683;48.402;10.596;2024-01-30T12:30:13;17.02;;;8.85;;
84444;SDS011;74683;48.402;10.596;2024-01-30T12:32:41;18.92;;;7.55;;
84444;SDS011;74683;48.402;10.596;2024-01-30T12:35:13;14.13;;;7.72;;
84444;SDS011;74683;48.402;10.596;2024-01-30T12:37:41;17.05;;;8.65;;
84444;SDS011;74683;48.402;10.596;2024-01-30T12:40:10;19.83;;;7.18;;
84444;SDS011;74683;48.402;10.596;2024-01-30T12:42:43;18.27;;;10.10;;
84444;SDS011;74683;48.402;10.596;2024-01-30T12:45:13;14.07;;;7.47;;
84444;SDS011;74683;48.402;10.596;2024-01-30T12:47:41;12.75;;;7.28;;
84444;SDS011;74683;48.402;10.596;2024-01-30T12:50:08;18.10;;;9.02;;
84444;SDS011;74683;48.402;10.596;2024-01-30T12:52:36;15.35;;;8.35;;
84444;SDS011;74683;48.402;10.596;2024-01-30T12:55:03;13.77;;;7.53;;
84444;SDS011;74683;48.402;10.596;2024-01-30T12:57:30;14.80;;;7.22;;
84444;SDS011;74683;48.402;10.596;2024-01-30T12:59:57;17.52;;;6.88;;
84444;SDS011;74683;48.402;10.596;2024-01-30T13:02:24;17.27;;;7.20;;
84444;SDS011;74683;48.402;10.596;2024-01-30T13:04:53;17.05;;;8.48;;
84444;SDS011;74683;48.402;10.596;2024-01-30T13:07:20;11.77;;;4.97;;
84444;SDS011;74683;48.402;10.596;2024-01-30T13:09:47;10.52;;;4.45;;
84444;SDS011;74683;48.402;10.596;2024-01-30T13:12:14;8.23;;;4.50;;
84444;SDS011;74683;48.402;10.596;2024-01-30T13:14:40;8.80;;;4.13;;
84444;SDS011;74683;48.402;10.596;2024-01-30T13:17:07;6.82;;;3.55;;
84444;SDS011;74683;48.402;10.596;2024-01-30T13:19:33;7.60;;;4.20;;
84444;SDS011;74683;48.402;10.596;2024-01-30T13:22:00;8.95;;;3.83;;
84444;SDS011;74683;48.402;10.596;2024-01-30T13:24:27;7.20;;;3.33;;
84444;SDS011;74683;48.402;10.596;2024-01-30T13:26:54;6.38;;;3.67;;
84444;SDS011;74683;48.402;10.596;2024-01-30T13:29:21;7.20;;;3.72;;
84444;SDS011;74683;48.402;10.596;2024-01-30T13:31:48;10.43;;;3.88;;
84444;SDS011;74683;48.402;10.596;2024-01-30T13:34:14;6.85;;;3.33;;
84444;SDS011;74683;48.402;10.596;2024-01-30T13:36:41;9.10;;;4.03;;
84444;SDS011;74683;48.402;10.596;2024-01-30T13:39:08;8.88;;;3.88;;
84444;SDS011;74683;48.402;10.596;2024-01-30T13:41:37;6.22;;;3.53;;
84444;SDS011;74683;48.402;10.596;2024-01-30T13:44:04;7.38;;;3.47;;
84444;SDS011;74683;48.402;10.596;2024-01-30T13:46:31;9.07;;;3.47;;
84444;SDS011;74683;48.402;10.596;2024-01-30T13:48:58;6.30;;;3.40;;
84444;SDS011;74683;48.402;10.596;2024-01-30T13:51:26;9.57;;;3.75;;
84444;SDS011;74683;48.402;10.596;2024-01-30T13:53:53;6.38;;;2.80;;
84444;SDS011;74683;48.402;10.596;2024-01-30T13:56:20;9.73;;;3.15;;
84444;SDS011;74683;48.402;10.596;2024-01-30T13:58:50;7.63;;;3.20;;
84444;SDS011;74683;48.402;10.596;2024-01-30T14:01:17;5.53;;;3.20;;
84444;SDS011;74683;48.402;10.596;2024-01-30T14:03:44;9.95;;;3.45;;
84444;SDS011;74683;48.402;10.596;2024-01-30T14:06:11;4.60;;;2.30;;
84444;SDS011;74683;48.402;10.596;2024-01-30T14:08:38;6.30;;;3.05;;
84444;SDS011;74683;48.402;10.596;2024-01-30T14:11:08;6.90;;;2.90;;
84444;SDS011;74683;48.402;10.596;2024-01-30T14:13:35;7.15;;;3.40;;
84444;SDS011;74683;48.402;10.596;2024-01-30T14:16:02;6.82;;;3.35;;
84444;SDS011;74683;48.402;10.596;2024-01-30T14:18:31;5.93;;;3.25;;
84444;SDS011;74683;48.402;10.596;2024-01-30T14:20:57;5.65;;;2.80;;
84444;SDS011;74683;48.402;10.596;2024-01-30T14:23:24;7.05;;;3.15;;
84444;SDS011;74683;48.402;10.596;2024-01-30T14:25:51;5.90;;;2.83;;
84444;SDS011;74683;48.402;10.596;2024-01-30T14:28:17;12.13;;;4.28;;
84444;SDS011;74683;48.402;10.596;2024-01-30T14:30:44;6.63;;;3.05;;
84444;SDS011;74683;48.402;10.596;2024-01-30T14:33:11;13.05;;;3.95;;
84444;SDS011;74683;48.402;10.596;2024-01-30T14:35:38;11.23;;;4.28;;
84444;SDS011;74683;48.402;10.596;2024-01-30T14:38:05;8.23;;;4.75;;